createdAt,value
2018-04-14T00:00:00.422Z,37.72
2018-04-14T00:01:03.495Z,37.22
2018-04-14T00:02:06.550Z,37.65
2018-04-14T00:03:09.618Z,37.55
2018-04-14T00:04:12.795Z,38.95
2018-04-14T00:05:15.958Z,39.15
2018-04-14T00:06:19.006Z,39.80
2018-04-14T00:07:22.144Z,39.88
2018-04-14T00:08:25.194Z,37.92
2018-04-14T00:09:28.238Z,37.35
2018-04-14T00:10:31.388Z,38.78
2018-04-14T00:11:34.418Z,39.35
2018-04-14T00:12:37.470Z,38.05
2018-04-14T00:13:40.517Z,37.20
2018-04-14T00:14:43.578Z,37.50
2018-04-14T00:15:46.683Z,38.10
2018-04-14T00:16:49.713Z,38.50
2018-04-14T00:17:52.792Z,37.60
2018-04-14T00:18:55.859Z,37.00
2018-04-14T00:19:58.898Z,38.03
2018-04-14T00:21:02.024Z,36.50
2018-04-14T00:22:05.063Z,37.38
2018-04-14T00:23:08.116Z,37.25
2018-04-14T00:24:12.034Z,38.88
2018-04-14T00:25:15.098Z,40.58
2018-04-14T00:26:18.201Z,37.42
2018-04-14T00:27:21.230Z,36.80
2018-04-14T00:28:24.294Z,37.50
2018-04-14T00:29:27.385Z,39.47
2018-04-14T00:30:30.404Z,38.20
2018-04-14T00:31:33.530Z,39.05
2018-04-14T00:32:36.629Z,39.38
2018-04-14T00:33:39.869Z,40.60
2018-04-14T00:34:42.934Z,38.55
2018-04-14T00:35:45.968Z,38.35
2018-04-14T00:36:49.043Z,38.90
2018-04-14T00:37:52.094Z,39.35
2018-04-14T00:38:55.210Z,40.53
2018-04-14T00:39:58.465Z,41.03
2018-04-14T00:41:01.570Z,39.20
2018-04-14T00:42:04.695Z,40.75
2018-04-14T00:43:07.718Z,40.10
2018-04-14T00:44:10.800Z,39.47
2018-04-14T00:45:13.933Z,38.72
2018-04-14T00:46:17.199Z,39.35
2018-04-14T00:47:20.340Z,40.40
2018-04-14T00:48:23.495Z,39.45
2018-04-14T00:49:26.520Z,37.30
2018-04-14T00:50:29.590Z,40.78
2018-04-14T00:51:32.726Z,41.03
2018-04-14T00:52:35.835Z,38.75
2018-04-14T00:53:48.305Z,37.42
2018-04-14T00:54:51.638Z,40.20
2018-04-14T00:55:54.798Z,40.28
2018-04-14T00:56:57.866Z,40.17
2018-04-14T00:58:00.940Z,40.15
2018-04-14T00:59:04.009Z,38.55
2018-04-14T01:00:07.039Z,39.25
2018-04-14T01:01:10.103Z,40.88
2018-04-14T01:02:13.236Z,38.08
2018-04-14T01:03:16.329Z,39.60
2018-04-14T01:04:19.398Z,39.88
2018-04-14T01:05:22.442Z,40.15
2018-04-14T01:06:25.545Z,38.97
2018-04-14T01:07:28.689Z,41.05
2018-04-14T01:08:31.808Z,37.13
2018-04-14T01:09:34.851Z,38.35
2018-04-14T01:10:37.913Z,37.90
2018-04-14T01:11:41.009Z,40.75
2018-04-14T01:12:44.037Z,43.85
2018-04-14T01:13:47.188Z,38.60
2018-04-14T01:14:50.216Z,41.25
2018-04-14T01:15:53.257Z,39.53
2018-04-14T01:16:56.307Z,39.17
2018-04-14T01:17:59.450Z,41.65
2018-04-14T01:19:02.558Z,40.85
2018-04-14T01:20:05.635Z,40.92
2018-04-14T01:21:08.685Z,39.65
2018-04-14T01:22:11.756Z,40.95
2018-04-14T01:23:14.844Z,38.70
2018-04-14T01:24:19.555Z,40.85
2018-04-14T01:25:22.812Z,40.75
2018-04-14T01:26:26.113Z,40.95
2018-04-14T01:27:29.201Z,43.45
2018-04-14T01:28:32.271Z,42.00
2018-04-14T01:29:35.413Z,42.55
2018-04-14T01:30:38.470Z,42.05
2018-04-14T01:31:41.574Z,39.83
2018-04-14T01:32:44.840Z,42.60
2018-04-14T01:33:47.927Z,42.28
2018-04-14T01:34:51.063Z,41.25
2018-04-14T01:35:54.160Z,41.20
2018-04-14T01:36:57.223Z,42.70
2018-04-14T01:38:00.331Z,40.47
2018-04-14T01:39:03.413Z,40.28
2018-04-14T01:40:06.579Z,41.65
2018-04-14T01:41:09.621Z,40.03
2018-04-14T01:42:12.669Z,40.47
2018-04-14T01:43:15.746Z,40.60
2018-04-14T01:44:18.873Z,40.30
2018-04-14T01:45:22.907Z,40.38
2018-04-14T01:46:25.946Z,39.00
2018-04-14T01:47:29.047Z,40.08
2018-04-14T01:48:32.158Z,40.58
2018-04-14T01:49:35.225Z,41.92
2018-04-14T01:50:38.320Z,39.50
2018-04-14T01:51:41.491Z,39.92
2018-04-14T01:52:44.609Z,39.00
2018-04-14T01:53:47.695Z,40.40
2018-04-14T01:54:50.812Z,39.60
2018-04-14T01:55:53.927Z,40.40
2018-04-14T01:56:57.021Z,41.22
2018-04-14T01:58:00.075Z,39.33
2018-04-14T01:59:03.190Z,39.60
2018-04-14T02:00:06.280Z,40.38
2018-04-14T02:01:09.447Z,39.15
2018-04-14T02:02:12.572Z,39.67
2018-04-14T02:03:15.882Z,39.28
2018-04-14T02:04:18.971Z,39.97
2018-04-14T02:05:22.006Z,39.90
2018-04-14T02:06:25.120Z,40.25
2018-04-14T02:07:28.184Z,41.90
2018-04-14T02:08:31.303Z,42.22
2018-04-14T02:09:34.362Z,39.72
2018-04-14T02:10:37.437Z,39.30
2018-04-14T02:11:40.742Z,40.97
2018-04-14T02:12:43.838Z,42.80
2018-04-14T02:13:46.899Z,39.28
2018-04-14T02:14:49.947Z,39.90
2018-04-14T02:15:53.134Z,41.05
2018-04-14T02:16:56.446Z,41.80
2018-04-14T02:17:59.593Z,41.28
2018-04-14T02:19:02.707Z,40.53
2018-04-14T02:20:05.873Z,39.60
2018-04-14T02:21:08.916Z,40.80
2018-04-14T02:22:12.024Z,39.65
2018-04-14T02:23:15.440Z,39.42
2018-04-14T02:24:18.802Z,40.80
2018-04-14T02:25:23.565Z,40.12
2018-04-14T02:26:26.719Z,41.15
2018-04-14T02:27:29.783Z,41.25
2018-04-14T02:28:32.825Z,40.78
2018-04-14T02:29:35.894Z,43.95
2018-04-14T02:30:39.042Z,42.60
2018-04-14T02:31:42.126Z,46.65
2018-04-14T02:32:45.217Z,43.90
2018-04-14T02:33:48.286Z,41.85
2018-04-14T02:34:51.396Z,43.58
2018-04-14T02:35:54.488Z,41.92
2018-04-14T02:36:57.531Z,45.30
2018-04-14T02:38:00.828Z,43.25
2018-04-14T02:39:03.907Z,46.50
2018-04-14T02:40:06.997Z,41.83
2018-04-14T02:41:10.076Z,40.88
2018-04-14T02:42:13.172Z,40.95
2018-04-14T02:43:16.241Z,40.97
2018-04-14T02:44:19.334Z,45.65
2018-04-14T02:45:22.422Z,45.17
2018-04-14T02:46:25.557Z,44.42
2018-04-14T02:47:28.612Z,45.00
2018-04-14T02:48:31.718Z,43.47
2018-04-14T02:49:34.819Z,43.75
2018-04-14T02:50:37.865Z,46.33
2018-04-14T02:51:40.923Z,48.85
2018-04-14T02:52:43.999Z,45.83
2018-04-14T02:53:47.148Z,46.45
2018-04-14T02:54:50.184Z,44.97
2018-04-14T02:55:53.391Z,44.55
2018-04-14T02:56:56.470Z,44.63
2018-04-14T02:57:59.602Z,44.05
2018-04-14T02:59:02.750Z,46.72
2018-04-14T03:00:05.812Z,44.70
2018-04-14T03:01:08.892Z,49.38
2018-04-14T03:02:11.921Z,46.50
2018-04-14T03:03:14.995Z,46.58
2018-04-14T03:04:18.064Z,47.05
2018-04-14T03:05:21.160Z,46.58
2018-04-14T03:06:24.267Z,46.80
2018-04-14T03:07:27.383Z,47.40
2018-04-14T03:08:30.711Z,47.25
2018-04-14T03:09:33.849Z,46.95
2018-04-14T03:10:36.911Z,46.55
2018-04-14T03:11:39.987Z,46.45
2018-04-14T03:12:43.105Z,46.78
2018-04-14T03:13:46.160Z,48.35
2018-04-14T03:14:49.368Z,46.92
2018-04-14T03:15:52.463Z,44.20
2018-04-14T03:16:55.498Z,46.58
2018-04-14T03:17:58.546Z,46.37
2018-04-14T03:19:01.635Z,45.28
2018-04-14T03:20:04.755Z,46.65
2018-04-14T03:21:07.829Z,46.37
2018-04-14T03:22:10.953Z,47.03
2018-04-14T03:23:14.016Z,46.95
2018-04-14T03:24:17.121Z,47.92
2018-04-14T03:25:20.262Z,46.00
2018-04-14T03:26:23.631Z,48.38
2018-04-14T03:27:26.743Z,47.65
2018-04-14T03:28:29.779Z,47.50
2018-04-14T03:29:32.918Z,48.35
2018-04-14T03:30:36.159Z,47.85
2018-04-14T03:31:39.239Z,49.70
2018-04-14T03:32:42.272Z,47.97
2018-04-14T03:33:45.320Z,47.97
2018-04-14T03:34:48.536Z,51.50
2018-04-14T03:35:51.692Z,50.28
2018-04-14T03:36:54.757Z,52.05
2018-04-14T03:37:57.839Z,48.97
2018-04-14T03:39:00.899Z,50.65
2018-04-14T03:40:03.929Z,50.20
2018-04-14T03:41:07.045Z,49.30
2018-04-14T03:42:10.114Z,49.30
2018-04-14T03:43:13.183Z,51.05
2018-04-14T03:44:16.355Z,49.60
2018-04-14T03:45:19.403Z,48.95
2018-04-14T03:46:22.562Z,48.00
2018-04-14T03:47:25.662Z,49.53
2018-04-14T03:48:28.700Z,49.55
2018-04-14T03:49:31.747Z,47.97
2018-04-14T03:50:34.972Z,52.15
2018-04-14T03:51:38.157Z,47.20
2018-04-14T03:52:41.226Z,51.67
2018-04-14T03:53:44.330Z,52.22
2018-04-14T03:54:47.375Z,49.15
2018-04-14T03:55:50.454Z,50.78
2018-04-14T03:56:53.738Z,48.92
2018-04-14T03:57:56.817Z,51.10
2018-04-14T03:58:59.961Z,48.30
2018-04-14T04:00:03.082Z,52.30
2018-04-14T04:01:06.211Z,51.37
2018-04-14T04:02:09.371Z,53.95
2018-04-14T04:03:12.490Z,50.65
2018-04-14T04:04:15.570Z,52.72
2018-04-14T04:05:18.643Z,52.28
2018-04-14T04:06:21.751Z,53.55
2018-04-14T04:07:24.840Z,51.45
2018-04-14T04:08:27.938Z,52.10
2018-04-14T04:09:31.077Z,56.25
2018-04-14T04:10:34.140Z,55.53
2018-04-14T04:11:37.183Z,52.70
2018-04-14T04:12:40.539Z,54.97
2018-04-14T04:13:43.731Z,55.05
2018-04-14T04:14:46.786Z,57.00
2018-04-14T04:15:49.843Z,53.80
2018-04-14T04:16:52.961Z,54.75
2018-04-14T04:17:56.406Z,55.30
2018-04-14T04:19:11.076Z,53.55
2018-04-14T04:20:24.911Z,54.92
2018-04-14T04:21:39.744Z,54.83
2018-04-14T04:22:54.742Z,54.05
2018-04-14T04:24:09.652Z,52.00
2018-04-14T04:26:50.905Z,53.97
2018-04-14T04:27:54.267Z,53.45
2018-04-14T04:28:57.685Z,56.25
2018-04-14T04:30:00.887Z,52.97
2018-04-14T04:31:03.966Z,51.42
2018-04-14T04:32:07.087Z,54.85
2018-04-14T04:33:10.258Z,56.42
2018-04-14T04:34:13.393Z,54.55
2018-04-14T04:35:16.549Z,54.53
2018-04-14T04:36:19.644Z,54.33
2018-04-14T04:37:22.706Z,54.30
2018-04-14T04:38:25.792Z,56.67
2018-04-14T04:39:28.937Z,55.65
2018-04-14T04:40:32.045Z,55.75
2018-04-14T04:41:35.104Z,56.75
2018-04-14T04:42:38.287Z,52.70
2018-04-14T04:43:41.456Z,56.72
2018-04-14T04:44:44.491Z,53.30
2018-04-14T04:45:47.891Z,53.45
2018-04-14T04:46:50.963Z,55.92
2018-04-14T04:47:54.075Z,55.50
2018-04-14T04:48:57.167Z,56.15
2018-04-14T04:50:00.488Z,53.90
2018-04-14T04:51:03.567Z,58.00
2018-04-14T04:52:06.701Z,56.50
2018-04-14T04:53:09.832Z,53.55
2018-04-14T04:54:13.061Z,57.03
2018-04-14T04:55:16.138Z,51.65
2018-04-14T04:56:19.259Z,53.35
2018-04-14T04:57:22.351Z,55.42
2018-04-14T04:58:25.402Z,54.67
2018-04-14T04:59:28.874Z,56.55
2018-04-14T05:00:31.949Z,55.05
2018-04-14T05:01:35.029Z,59.17
2018-04-14T05:02:38.103Z,56.63
2018-04-14T05:03:41.182Z,57.00
2018-04-14T05:04:44.279Z,52.95
2018-04-14T05:05:47.394Z,60.75
2018-04-14T05:06:50.696Z,57.15
2018-04-14T05:07:54.092Z,57.88
2018-04-14T05:08:57.187Z,57.45
2018-04-14T05:10:00.272Z,58.42
2018-04-14T05:11:03.319Z,57.62
2018-04-14T05:12:06.490Z,55.40
2018-04-14T05:13:09.598Z,55.25
2018-04-14T05:14:12.685Z,60.47
2018-04-14T05:15:15.810Z,56.85
2018-04-14T05:16:18.931Z,58.08
2018-04-14T05:17:22.081Z,60.00
2018-04-14T05:18:25.382Z,58.85
2018-04-14T05:19:28.537Z,58.00
2018-04-14T05:20:31.732Z,59.08
2018-04-14T05:21:34.822Z,59.85
2018-04-14T05:22:37.898Z,58.58
2018-04-14T05:23:40.983Z,58.22
2018-04-14T05:24:44.125Z,59.88
2018-04-14T05:25:47.190Z,58.33
2018-04-14T05:26:51.048Z,59.70
2018-04-14T05:27:54.192Z,61.75
2018-04-14T05:28:57.253Z,60.85
2018-04-14T05:30:00.318Z,63.30
2018-04-14T05:31:03.383Z,58.65
2018-04-14T05:32:06.476Z,62.13
2018-04-14T05:33:09.568Z,58.70
2018-04-14T05:34:12.643Z,62.33
2018-04-14T05:35:15.848Z,61.95
2018-04-14T05:36:18.910Z,58.33
2018-04-14T05:37:21.975Z,57.78
2018-04-14T05:38:25.151Z,58.10
2018-04-14T05:39:28.564Z,57.72
2018-04-14T05:40:31.719Z,59.88
2018-04-14T05:41:34.823Z,59.75
2018-04-14T05:42:37.970Z,58.30
2018-04-14T05:43:41.150Z,58.85
2018-04-14T05:44:44.234Z,60.35
2018-04-14T05:45:47.310Z,55.75
2018-04-14T05:46:50.385Z,59.00
2018-04-14T05:47:53.488Z,59.10
2018-04-14T05:48:56.735Z,58.20
2018-04-14T05:49:59.887Z,59.45
2018-04-14T05:51:03.037Z,59.25
2018-04-14T05:52:06.107Z,57.25
2018-04-14T05:53:09.196Z,60.17
2018-04-14T05:54:12.437Z,57.60
2018-04-14T05:55:15.641Z,58.03
2018-04-14T05:56:18.767Z,57.35
2018-04-14T05:57:21.863Z,56.40
2018-04-14T05:58:24.907Z,56.35
2018-04-14T05:59:28.055Z,55.63
2018-04-14T06:00:31.130Z,57.10
2018-04-14T06:01:34.223Z,58.65
2018-04-14T06:02:37.326Z,55.40
2018-04-14T06:03:40.407Z,56.63
2018-04-14T06:04:43.595Z,56.45
2018-04-14T06:05:46.762Z,59.15
2018-04-14T06:07:59.054Z,56.20
2018-04-14T06:09:02.099Z,54.80
2018-04-14T06:10:05.290Z,54.20
2018-04-14T06:11:08.392Z,54.28
2018-04-14T06:12:11.498Z,56.95
2018-04-14T06:13:14.619Z,53.92
2018-04-14T06:14:17.887Z,56.42
2018-04-14T06:15:21.294Z,53.35
2018-04-14T06:16:24.364Z,55.78
2018-04-14T06:17:27.510Z,51.25
2018-04-14T06:18:30.617Z,52.90
2018-04-14T06:19:33.934Z,55.70
2018-04-14T06:20:37.049Z,53.22
2018-04-14T06:21:40.164Z,52.85
2018-04-14T06:22:43.207Z,50.08
2018-04-14T06:23:46.531Z,51.25
2018-04-14T06:24:49.670Z,52.95
2018-04-14T06:25:52.832Z,50.90
2018-04-14T06:26:56.202Z,52.38
2018-04-14T06:27:59.253Z,47.30
2018-04-14T06:29:02.312Z,49.55
2018-04-14T06:30:05.372Z,50.25
2018-04-14T06:31:08.573Z,51.30
2018-04-14T06:32:11.635Z,49.97
2018-04-14T06:33:14.711Z,52.62
2018-04-14T06:34:17.791Z,50.60
2018-04-14T06:35:20.968Z,52.92
2018-04-14T06:36:24.073Z,51.40
2018-04-14T06:37:27.215Z,51.67
2018-04-14T06:38:30.327Z,49.67
2018-04-14T06:39:33.440Z,51.03
2018-04-14T06:40:36.502Z,50.42
2018-04-14T06:41:39.900Z,45.92
2018-04-14T06:42:43.089Z,47.55
2018-04-14T06:43:46.149Z,51.30
2018-04-14T06:44:49.252Z,50.42
2018-04-14T06:45:52.441Z,49.38
2018-04-14T06:46:55.587Z,50.65
2018-04-14T06:47:58.686Z,49.33
2018-04-14T06:49:01.763Z,47.22
2018-04-14T06:50:05.029Z,46.75
2018-04-14T06:51:08.135Z,44.92
2018-04-14T06:52:11.523Z,43.87
2018-04-14T06:53:14.699Z,43.65
2018-04-14T06:54:17.748Z,43.67
2018-04-14T06:55:20.893Z,42.80
2018-04-14T06:56:23.998Z,43.50
2018-04-14T06:57:27.122Z,43.20
2018-04-14T06:58:30.423Z,44.90
2018-04-14T06:59:46.126Z,40.58
2018-04-14T07:00:53.712Z,38.65
2018-04-14T07:01:57.645Z,38.78
2018-04-14T07:03:01.023Z,37.67
2018-04-14T07:04:04.102Z,37.85
2018-04-14T07:05:07.147Z,38.67
2018-04-14T07:06:10.296Z,40.88
2018-04-14T07:07:13.457Z,38.17
2018-04-14T07:08:16.631Z,35.47
2018-04-14T07:09:19.879Z,38.47
2018-04-14T07:10:23.171Z,34.72
2018-04-14T07:11:27.186Z,35.08
2018-04-14T07:12:30.276Z,33.83
2018-04-14T07:13:33.472Z,34.03
2018-04-14T07:14:36.769Z,35.63
2018-04-14T07:15:40.006Z,36.85
2018-04-14T07:16:43.076Z,36.28
2018-04-14T07:17:46.210Z,35.53
2018-04-14T07:18:49.440Z,38.47
2018-04-14T07:19:52.557Z,40.60
2018-04-14T07:20:55.675Z,39.30
2018-04-14T07:21:58.781Z,38.75
2018-04-14T07:23:01.851Z,40.17
2018-04-14T07:24:04.959Z,38.67
2018-04-14T07:25:08.008Z,38.70
2018-04-14T07:26:11.040Z,39.28
2018-04-14T07:27:15.066Z,39.60
2018-04-14T07:28:18.152Z,41.15
2018-04-14T07:29:21.268Z,40.53
2018-04-14T07:30:24.415Z,42.08
2018-04-14T07:31:28.159Z,43.03
2018-04-14T07:32:31.252Z,40.90
2018-04-14T07:33:34.520Z,43.00
2018-04-14T07:34:37.590Z,42.05
2018-04-14T07:35:40.753Z,46.00
2018-04-14T07:36:43.856Z,43.95
2018-04-14T07:37:47.068Z,46.35
2018-04-14T07:38:50.291Z,47.67
2018-04-14T07:39:53.492Z,45.78
2018-04-14T07:40:56.539Z,47.15
2018-04-14T07:41:59.623Z,44.38
2018-04-14T07:43:02.701Z,43.87
2018-04-14T07:44:05.818Z,45.08
2018-04-14T07:45:08.990Z,43.97
2018-04-14T07:46:12.101Z,43.53
2018-04-14T07:47:15.478Z,43.85
2018-04-14T07:48:18.541Z,41.55
2018-04-14T07:49:21.611Z,43.83
2018-04-14T07:50:24.739Z,52.22
2018-04-14T07:51:28.373Z,49.83
2018-04-14T07:52:31.453Z,46.08
2018-04-14T07:53:34.635Z,47.35
2018-04-14T07:54:37.753Z,47.03
2018-04-14T07:55:40.854Z,47.60
2018-04-14T07:56:43.960Z,41.13
2018-04-14T07:57:47.055Z,42.67
2018-04-14T07:58:50.129Z,43.05
2018-04-14T07:59:53.216Z,45.78
2018-04-14T08:00:56.437Z,43.45
2018-04-14T08:01:59.496Z,45.05
2018-04-14T08:03:02.792Z,40.97
2018-04-14T08:04:05.934Z,42.05
2018-04-14T08:05:09.046Z,43.95
2018-04-14T08:06:12.123Z,43.45
2018-04-14T08:07:15.207Z,43.90
2018-04-14T08:08:18.330Z,43.55
2018-04-14T08:09:21.462Z,81.43
2018-04-14T08:10:24.548Z,56.47
2018-04-14T08:11:27.911Z,46.05
2018-04-14T08:12:31.051Z,41.72
2018-04-14T08:13:34.121Z,42.28
2018-04-14T08:14:37.289Z,40.17
2018-04-14T08:15:40.424Z,41.17
2018-04-14T08:16:43.560Z,37.60
2018-04-14T08:17:46.622Z,36.97
2018-04-14T08:18:49.828Z,36.55
2018-04-14T08:19:52.996Z,37.75
2018-04-14T08:20:56.095Z,37.40
2018-04-14T08:21:59.847Z,38.55
2018-04-14T08:23:02.994Z,39.00
2018-04-14T08:24:06.059Z,37.90
2018-04-14T08:25:09.165Z,38.92
2018-04-14T08:26:12.282Z,39.80
2018-04-14T08:27:16.507Z,35.30
2018-04-14T08:28:19.608Z,37.25
2018-04-14T08:29:22.678Z,37.08
2018-04-14T08:30:25.767Z,36.95
2018-04-14T08:31:28.880Z,36.78
2018-04-14T08:32:31.976Z,35.67
2018-04-14T08:33:35.043Z,36.45
2018-04-14T08:34:38.090Z,37.22
2018-04-14T08:35:41.223Z,36.20
2018-04-14T08:36:44.311Z,34.65
2018-04-14T08:37:47.468Z,35.70
2018-04-14T08:38:50.510Z,35.92
2018-04-14T08:39:53.623Z,34.80
2018-04-14T08:40:56.967Z,38.28
2018-04-14T08:42:00.057Z,36.42
2018-04-14T08:43:03.175Z,34.50
2018-04-14T08:44:06.325Z,35.35
2018-04-14T08:45:09.500Z,34.83
2018-04-14T08:46:12.593Z,36.55
2018-04-14T08:47:15.710Z,37.05
2018-04-14T08:48:18.960Z,37.00
2018-04-14T08:49:22.038Z,36.17
2018-04-14T08:50:25.290Z,35.63
2018-04-14T08:51:28.361Z,33.40
2018-04-14T08:52:31.456Z,35.05
2018-04-14T08:53:34.537Z,36.28
2018-04-14T08:54:37.781Z,34.63
2018-04-14T08:55:40.878Z,36.33
2018-04-14T08:56:43.968Z,35.40
2018-04-14T08:57:47.585Z,37.38
2018-04-14T08:58:50.731Z,36.22
2018-04-14T08:59:53.850Z,35.97
2018-04-14T09:00:56.890Z,35.03
2018-04-14T09:02:00.192Z,36.15
2018-04-14T09:03:03.227Z,34.78
2018-04-14T09:04:06.498Z,34.05
2018-04-14T09:05:09.563Z,34.30
2018-04-14T09:06:12.657Z,35.58
2018-04-14T09:07:15.820Z,33.65
2018-04-14T09:08:18.875Z,35.15
2018-04-14T09:09:21.992Z,34.15
2018-04-14T09:10:25.356Z,34.15
2018-04-14T09:11:28.418Z,34.33
2018-04-14T09:12:31.523Z,34.72
2018-04-14T09:13:34.567Z,35.47
2018-04-14T09:14:37.642Z,35.92
2018-04-14T09:15:40.716Z,33.20
2018-04-14T09:16:44.089Z,34.25
2018-04-14T09:17:47.152Z,33.25
2018-04-14T09:18:50.227Z,36.60
2018-04-14T09:19:53.351Z,35.85
2018-04-14T09:20:56.510Z,35.30
2018-04-14T09:21:59.559Z,35.03
2018-04-14T09:23:02.666Z,34.25
2018-04-14T09:24:05.785Z,37.40
2018-04-14T09:25:09.333Z,40.30
2018-04-14T09:26:12.626Z,42.15
2018-04-14T09:27:15.871Z,38.97
2018-04-14T09:28:19.747Z,40.17
2018-04-14T09:29:22.807Z,42.40
2018-04-14T09:30:25.940Z,41.92
2018-04-14T09:31:29.098Z,39.65
2018-04-14T09:32:32.191Z,38.72
2018-04-14T09:33:35.271Z,42.35
2018-04-14T09:34:38.325Z,41.85
2018-04-14T09:35:41.472Z,37.97
2018-04-14T09:36:44.594Z,38.35
2018-04-14T09:37:47.654Z,38.40
2018-04-14T09:38:50.775Z,39.80
2018-04-14T09:39:53.930Z,39.42
2018-04-14T09:40:57.046Z,39.25
2018-04-14T09:42:00.138Z,42.38
2018-04-14T09:43:03.395Z,44.38
2018-04-14T09:44:06.683Z,45.92
2018-04-14T09:45:09.778Z,43.10
2018-04-14T09:46:12.895Z,43.65
2018-04-14T09:47:16.185Z,45.15
2018-04-14T09:48:19.258Z,44.92
2018-04-14T09:49:23.549Z,44.95
2018-04-14T09:51:42.271Z,43.67
2018-04-14T09:52:45.341Z,41.15
2018-04-14T09:53:48.375Z,42.05
2018-04-14T09:54:51.745Z,43.10
2018-04-14T09:55:54.835Z,41.53
2018-04-14T09:56:58.074Z,43.92
2018-04-14T09:58:01.267Z,43.42
2018-04-14T09:59:04.466Z,43.28
2018-04-14T10:00:07.528Z,44.58
2018-04-14T10:01:16.146Z,43.47
2018-04-14T10:02:29.258Z,41.50
2018-04-14T10:03:32.297Z,45.72
2018-04-14T10:04:35.374Z,44.40
2018-04-14T10:05:38.551Z,41.15
2018-04-14T10:06:41.683Z,41.75
2018-04-14T10:07:44.799Z,41.75
2018-04-14T10:08:47.886Z,43.22
2018-04-14T10:09:51.107Z,40.63
2018-04-14T10:10:54.195Z,41.35
2018-04-14T10:11:57.315Z,42.13
2018-04-14T10:13:00.413Z,41.95
2018-04-14T10:14:03.567Z,42.47
2018-04-14T10:15:06.712Z,43.63
2018-04-14T10:16:09.792Z,41.20
2018-04-14T10:17:12.849Z,41.40
2018-04-14T10:18:15.968Z,42.10
2018-04-14T10:19:19.076Z,45.35
2018-04-14T10:20:22.365Z,44.85
2018-04-14T10:21:25.503Z,41.20
2018-04-14T10:22:28.622Z,42.45
2018-04-14T10:23:31.775Z,43.15
2018-04-14T10:24:34.863Z,41.60
2018-04-14T10:25:37.975Z,40.90
2018-04-14T10:26:41.091Z,44.05
2018-04-14T10:27:44.205Z,42.15
2018-04-14T10:28:47.861Z,42.53
2018-04-14T10:29:50.928Z,43.95
2018-04-14T10:30:53.979Z,43.13
2018-04-14T10:31:57.095Z,41.28
2018-04-14T10:33:00.193Z,43.53
2018-04-14T10:34:03.337Z,41.60
2018-04-14T10:35:06.443Z,43.33
2018-04-14T10:36:09.523Z,40.38
2018-04-14T10:37:12.607Z,41.70
2018-04-14T10:38:15.664Z,41.40
2018-04-14T10:39:18.724Z,40.40
2018-04-14T10:40:21.933Z,40.30
2018-04-14T10:41:25.041Z,42.90
2018-04-14T10:42:28.164Z,39.97
2018-04-14T10:43:31.258Z,43.42
2018-04-14T10:44:34.377Z,42.80
2018-04-14T10:45:37.437Z,41.40
2018-04-14T10:46:40.551Z,42.00
2018-04-14T10:47:43.649Z,39.67
2018-04-14T10:48:46.737Z,38.90
2018-04-14T10:49:50.337Z,41.25
2018-04-14T10:50:53.475Z,42.38
2018-04-14T10:51:56.543Z,38.95
2018-04-14T10:52:59.665Z,42.00
2018-04-14T10:54:02.746Z,40.47
2018-04-14T10:55:06.052Z,43.08
2018-04-14T10:56:09.387Z,41.80
2018-04-14T10:57:12.775Z,42.20
2018-04-14T10:59:25.249Z,43.35
2018-04-14T11:00:28.320Z,42.88
2018-04-14T11:01:31.438Z,41.60
2018-04-14T11:02:34.569Z,40.12
2018-04-14T11:03:37.724Z,39.35
2018-04-14T11:04:40.819Z,40.00
2018-04-14T11:05:43.987Z,40.05
2018-04-14T11:06:47.064Z,42.83
2018-04-14T11:07:50.116Z,41.75
2018-04-14T11:08:53.188Z,42.25
2018-04-14T11:09:56.337Z,42.05
2018-04-14T11:10:59.659Z,42.85
2018-04-14T11:12:02.700Z,41.90
2018-04-14T11:13:06.004Z,41.35
2018-04-14T11:14:09.055Z,38.80
2018-04-14T11:15:12.657Z,41.88
2018-04-14T11:16:15.788Z,42.10
2018-04-14T11:17:18.933Z,39.45
2018-04-14T11:18:22.563Z,38.35
2018-04-14T11:19:25.653Z,39.58
2018-04-14T11:20:28.698Z,41.15
2018-04-14T11:21:31.783Z,39.50
2018-04-14T11:22:34.904Z,39.97
2018-04-14T11:23:38.021Z,41.10
2018-04-14T11:24:41.178Z,39.83
2018-04-14T11:25:44.221Z,41.22
2018-04-14T11:26:47.347Z,41.83
2018-04-14T11:27:50.472Z,42.50
2018-04-14T11:28:55.016Z,41.65
2018-04-14T11:29:58.200Z,41.47
2018-04-14T11:31:01.356Z,40.05
2018-04-14T11:32:04.484Z,40.33
2018-04-14T11:33:07.616Z,38.92
2018-04-14T11:34:10.692Z,43.42
2018-04-14T11:35:13.779Z,41.22
2018-04-14T11:36:16.851Z,40.08
2018-04-14T11:37:20.094Z,42.62
2018-04-14T11:38:23.235Z,38.38
2018-04-14T11:39:26.265Z,42.42
2018-04-14T11:40:29.319Z,41.92
2018-04-14T11:41:32.363Z,39.20
2018-04-14T11:42:35.435Z,40.60
2018-04-14T11:43:38.529Z,41.45
2018-04-14T11:44:41.616Z,40.40
2018-04-14T11:45:44.787Z,39.08
2018-04-14T11:46:47.874Z,39.95
2018-04-14T11:47:50.948Z,40.30
2018-04-14T11:48:54.079Z,41.92
2018-04-14T11:49:57.196Z,39.97
2018-04-14T11:51:00.314Z,42.65
2018-04-14T11:52:03.581Z,39.42
2018-04-14T11:53:06.741Z,38.30
2018-04-14T11:54:09.838Z,44.25
2018-04-14T11:55:12.925Z,39.20
2018-04-14T11:56:16.018Z,40.15
2018-04-14T11:57:19.145Z,40.25
2018-04-14T11:58:23.010Z,39.50
2018-04-14T11:59:26.151Z,42.35
2018-04-14T12:00:29.286Z,41.53
2018-04-14T12:01:32.510Z,39.25
2018-04-14T12:02:35.617Z,38.85
2018-04-14T12:03:38.761Z,40.03
2018-04-14T12:04:41.820Z,41.28
2018-04-14T12:05:44.887Z,41.30
2018-04-14T12:06:47.963Z,39.50
2018-04-14T12:07:51.153Z,39.85
2018-04-14T12:08:54.801Z,40.58
2018-04-14T12:09:57.890Z,40.75
2018-04-14T12:11:01.025Z,40.60
2018-04-14T12:12:04.122Z,40.65
2018-04-14T12:13:07.193Z,39.63
2018-04-14T12:14:10.363Z,40.12
2018-04-14T12:15:13.419Z,41.28
2018-04-14T12:16:16.643Z,40.17
2018-04-14T12:17:19.819Z,40.95
2018-04-14T12:18:22.887Z,41.35
2018-04-14T12:19:26.109Z,40.17
2018-04-14T12:20:29.245Z,38.92
2018-04-14T12:21:32.510Z,42.40
2018-04-14T12:22:35.925Z,40.63
2018-04-14T12:23:38.931Z,40.05
2018-04-14T12:24:42.054Z,39.70
2018-04-14T12:25:45.204Z,40.85
2018-04-14T12:26:48.264Z,38.97
2018-04-14T12:27:51.456Z,39.22
2018-04-14T12:28:54.619Z,42.50
2018-04-14T12:29:57.788Z,42.20
2018-04-14T12:31:00.958Z,37.78
2018-04-14T12:32:04.125Z,39.35
2018-04-14T12:33:07.205Z,40.63
2018-04-14T12:34:10.363Z,39.85
2018-04-14T12:35:13.496Z,40.25
2018-04-14T12:36:16.654Z,38.95
2018-04-14T12:37:19.743Z,40.10
2018-04-14T12:38:22.840Z,39.58
2018-04-14T12:39:25.924Z,39.30
2018-04-14T12:40:29.049Z,39.55
2018-04-14T12:41:32.114Z,42.85
2018-04-14T12:42:35.251Z,40.47
2018-04-14T12:43:38.535Z,39.30
2018-04-14T12:44:41.861Z,37.92
2018-04-14T12:45:44.995Z,40.25
2018-04-14T12:46:48.035Z,41.33
2018-04-14T12:47:51.100Z,39.35
2018-04-14T12:48:54.256Z,39.92
2018-04-14T12:49:57.390Z,40.22
2018-04-14T12:51:00.466Z,41.05
2018-04-14T12:52:03.556Z,41.22
2018-04-14T12:53:06.708Z,40.92
2018-04-14T12:54:09.799Z,39.78
2018-04-14T12:55:13.050Z,39.75
2018-04-14T12:56:16.260Z,38.85
2018-04-14T12:57:19.421Z,39.63
2018-04-14T12:58:22.523Z,38.58
2018-04-14T12:59:25.627Z,36.83
2018-04-14T13:00:28.758Z,42.38
2018-04-14T13:01:32.199Z,38.22
2018-04-14T13:02:35.563Z,37.63
2018-04-14T13:03:38.664Z,36.72
2018-04-14T13:04:41.838Z,37.88
2018-04-14T13:05:44.913Z,40.45
2018-04-14T13:06:48.140Z,39.45
2018-04-14T13:07:51.183Z,39.60
2018-04-14T13:08:54.352Z,38.80
2018-04-14T13:09:57.431Z,43.05
2018-04-14T13:11:00.555Z,41.85
2018-04-14T13:12:03.673Z,40.38
2018-04-14T13:13:06.742Z,38.80
2018-04-14T13:14:09.855Z,39.30
2018-04-14T13:15:12.940Z,39.20
2018-04-14T13:16:16.084Z,39.65
2018-04-14T13:17:19.192Z,39.80
2018-04-14T13:18:22.329Z,40.83
2018-04-14T13:19:25.513Z,43.25
2018-04-14T13:20:28.636Z,40.45
2018-04-14T13:21:31.780Z,41.47
2018-04-14T13:22:34.960Z,39.67
2018-04-14T13:23:38.034Z,40.50
2018-04-14T13:24:41.160Z,39.50
2018-04-14T13:25:44.329Z,39.42
2018-04-14T13:26:47.440Z,37.47
2018-04-14T13:27:50.657Z,39.92
2018-04-14T13:28:54.091Z,38.53
2018-04-14T13:29:57.464Z,38.80
2018-04-14T13:31:00.535Z,40.92
2018-04-14T13:32:03.599Z,40.00
2018-04-14T13:33:06.812Z,41.92
2018-04-14T13:34:09.912Z,39.80
2018-04-14T13:35:13.016Z,43.40
2018-04-14T13:36:16.144Z,41.45
2018-04-14T13:37:19.276Z,42.00
2018-04-14T13:38:22.435Z,39.03
2018-04-14T13:39:25.615Z,38.28